Time;durP1;ratioP1;P1;durP2;ratioP2;P2;SDS_P1;SDS_P2;PMS_P1;PMS_P2;Temp;Humidity;BMP_temperature;BMP_pressure;BME280_temperature;BME280_humidity;BME280_pressure;Samples;Min_cycle;Max_cycle;Signal;HPM_P1;HPM_P2
2023/12/12 00:04:44;;;;;;;;;;;;;;;;;;10252697;28;19939;-83
2023/12/12 00:09:48;;;;;;;;;;;;;;;;;;10257955;28;19934;-88
2023/12/12 00:14:48;;;;;;;;;;;;;;;;;;10243811;28;19990;-86
2023/12/12 00:19:50;;;;;;;;;;;;;;;;;;10265865;28;19930;-87
2023/12/12 00:24:53;;;;;;;;;;;;;;;;;;10175789;28;19997;-88
2023/12/12 00:29:58;;;;;;;;;;;;;;;;;;10237712;28;19923;-88
2023/12/12 00:34:59;;;;;;;;;;;;;;;;;;10212838;28;19922;-87
2023/12/12 00:39:59;;;;;;;;;;;;;;;;;;10233426;28;20383;-86
2023/12/12 00:45:00;;;;;;;;;;;;;;;;;;10206457;28;19926;-87
2023/12/12 00:50:02;;;;;;;;;;;;;;;;;;10209796;28;19982;-86
2023/12/12 00:55:03;;;;;;;;;;;;;;;;;;10240831;28;19965;-86
2023/12/12 01:00:03;;;;;;;;;;;;;;;;;;10231187;28;20395;-86
2023/12/12 01:05:08;;;;;;;;;;;;;;;;;;10238161;28;19923;-87
2023/12/12 01:10:08;;;;;;;;;;;;;;;;;;10224878;28;19961;-87
2023/12/12 01:15:10;;;;;;;;;;;;;;;;;;10242837;28;20399;-86
2023/12/12 01:20:10;;;;;;;;;;;;;;;;;;10288051;28;19914;-86
2023/12/12 01:25:10;;;;;;;;;;;;;;;;;;10302923;28;21045;-85
2023/12/12 01:30:11;;;;;;;;;;;;;;;;;;10232474;28;20258;-85
2023/12/12 01:35:11;;;;;;;;;;;;;;;;;;10248766;28;19910;-86
2023/12/12 01:40:15;;;;;;;;;;;;;;;;;;10250493;28;19911;-86
2023/12/12 01:45:16;;;;;;;;;;;;;;;;;;10258110;28;19923;-85
2023/12/12 01:50:25;;;;;;;;;;;;;;;;;;10225882;28;19923;-85
2023/12/12 01:55:50;;;;;;;;;;;;;;;;;;10202463;28;19926;-84
2023/12/12 02:00:51;;;;;;;;;;;;;;;;;;10261082;28;20010;-85
2023/12/12 02:05:54;;;;;;;;;;;;;;;;;;10307006;28;19934;-87
2023/12/12 02:10:57;;;;;;;;;;;;;;;;;;10264850;28;19923;-87
2023/12/12 02:16:00;;;;;;;;;;;;;;;;;;10168944;28;19982;-86
2023/12/12 02:21:17;;;;;;;;;;;;;;;;;;10235238;28;19997;-88
2023/12/12 02:26:18;;;;;;;;;;;;;;;;;;10466494;23;19941;-88
2023/12/12 02:31:19;;;;;;;;;;;;;;;;;;10273615;28;20473;-87
2023/12/12 02:36:21;;;;;;;;;;;;;;;;;;10259973;28;19922;-86
2023/12/12 02:41:26;;;;;;;;;;;;;;;;;;10254813;28;19948;-88
2023/12/12 02:46:39;;;;;;;;;;;;;;;;;;10300099;28;20022;-88
2023/12/12 02:51:48;;;;;;;;;;;;;;;;;;10279232;28;19925;-89
2023/12/12 02:56:56;;;;;;;;;;;;;;;;;;10260767;28;19985;-85
2023/12/12 03:01:56;;;;;;;;;;;;;;;;;;10309151;28;19977;-85
2023/12/12 03:06:58;;;;;;;;;;;;;;;;;;10290855;28;19914;-87
2023/12/12 03:11:59;;;;;;;;;;;;;;;;;;10317267;28;19981;-85
2023/12/12 03:16:59;;;;;;;;;;;;;;;;;;10276152;28;19957;-87
2023/12/12 03:22:06;;;;;;;;;;;;;;;;;;10241291;28;19915;-86
2023/12/12 03:27:08;;;;;;;;;;;;;;;;;;10231411;28;19907;-84
2023/12/12 03:32:13;;;;;;;;;;;;;;;;;;10308037;28;19907;-86
2023/12/12 03:37:35;;;;;;;;;;;;;;;;;;10314984;28;19907;-85
2023/12/12 03:42:36;;;;;;;;;;;;;;;;;;10284978;28;19906;-84
2023/12/12 03:47:37;;;;;;;;;;;;;;;;;;10258438;28;19929;-85
2023/12/12 03:52:45;;;;;;;;;;;;;;;;;;10266894;28;19941;-86
2023/12/12 03:57:47;;;;;;;;;;;;;;;;;;10303319;28;19936;-87
2023/12/12 04:02:58;;;;;;;;;;;;;;;;;;10270459;28;19932;-84
2023/12/12 04:08:00;;;;;;;;;;;;;;;;;;10315247;28;19922;-85
2023/12/12 04:13:00;;;;;;;;;;;;;;;;;;10311091;28;19906;-84
2023/12/12 04:18:04;;;;;;;;;;;;;;;;;;10303741;28;19914;-85
2023/12/12 04:23:07;;;;;;;;;;;;;;;;;;10363513;28;19905;-84
2023/12/12 04:28:09;;;;;;;;;;;;;;;;;;10331175;28;19933;-84
2023/12/12 04:33:18;;;;;;;;;;;;;;;;;;10307815;28;19997;-85
2023/12/12 04:38:25;;;;;;;;;;;;;;;;;;10286114;28;19954;-88
2023/12/12 04:43:39;;;;;;;;;;;;;;;;;;10248033;28;19926;-86
2023/12/12 04:48:40;;;;;;;;;;;;;;;;;;10226756;28;19938;-85
2023/12/12 04:53:48;;;;;;;;;;;;;;;;;;10204517;28;19933;-92
2023/12/12 04:59:10;;;;;;;;;;;;;;;;;;10235859;28;19940;-88
2023/12/12 05:04:10;;;;;;;;;;;;;;;;;;10292325;28;19906;-91
2023/12/12 05:09:10;;;;;;;;;;;;;;;;;;10193417;28;19934;-89
2023/12/12 05:14:14;;;;;;;;;;;;;;;;;;10197896;28;19926;-85
2023/12/12 05:19:15;;;;;;;;;;;;;;;;;;10243025;28;19945;-84
2023/12/12 05:24:15;;;;;;;;;;;;;;;;;;10239971;28;19930;-88
2023/12/12 05:29:19;;;;;;;;;;;;;;;;;;10231308;28;19910;-87
2023/12/12 05:34:35;;;;;;;;;;;;;;;;;;;;;
2023/12/12 05:39:56;;;;;;;;;;;;;;;;;;10306963;28;19939;-85
2023/12/12 05:45:03;;;;;;;;;;;;;;;;;;10214027;28;19930;-84
2023/12/12 05:50:06;;;;;;;;;;;;;;;;;;10229288;28;19929;-85
2023/12/12 05:55:07;;;;;;;;;;;;;;;;;;10257405;28;19906;-84
2023/12/12 06:00:07;;;;;;;;;;;;;;;;;;10282035;28;19961;-85
2023/12/12 06:05:19;;;;;;;;;;;;;;;;;;10247229;28;19923;-84
2023/12/12 06:10:23;;;;;;;;;;;;;;;;;;10233236;28;19992;-82
2023/12/12 06:15:29;;;;;;;;;;;;;;;;;;10235449;28;20032;-84
2023/12/12 06:20:32;;;;;;;;;;;;;;;;;;10252418;28;20411;-83
2023/12/12 06:25:36;;;;;;;;;;;;;;;;;;10218763;28;19926;-83
2023/12/12 06:30:37;;;;;;;;;;;;;;;;;;10224213;28;19923;-84
2023/12/12 06:35:40;;;;;;;;;;;;;;;;;;10253647;28;19906;-81
2023/12/12 06:40:42;;;;;;;;;;;;;;;;;;10303878;28;20002;-82
2023/12/12 06:45:42;;;;;;;;;;;;;;;;;;10296732;28;19924;-82
2023/12/12 06:50:43;;;;;;;;;;;;;;;;;;10290281;28;19915;-83
2023/12/12 06:55:50;;;;;;;;;;;;;;;;;;10293598;28;19958;-81
2023/12/12 07:00:50;;;;;;;;;;;;;;;;;;10268020;28;19941;-81
2023/12/12 07:05:56;;;;;;;;;;;;;;;;;;10235855;28;19962;-82
2023/12/12 07:10:56;;;;;;;;;;;;;;;;;;10235570;28;19961;-81
2023/12/12 07:15:56;;;;;;;;;;;;;;;;;;10253517;28;20303;-80
2023/12/12 07:20:57;;;;;;;;;;;;;;;;;;10259901;28;19961;-81
2023/12/12 07:25:58;;;;;;;;;;;;;;;;;;10258846;28;19927;-83
2023/12/12 07:31:00;;;;;;;;;;;;;;;;;;10244447;28;19923;-82
2023/12/12 07:36:02;;;;;;;;;;;;;;;;;;10248140;28;19932;-82
2023/12/12 07:41:10;;;;;;;;;;;;;;;;;;10261928;28;19938;-81
2023/12/12 07:46:12;;;;;;;;;;;;;;;;;;10214970;28;20000;-81
2023/12/12 07:51:12;;;;;;;;;;;;;;;;;;10221500;28;19973;-80
2023/12/12 07:56:13;;;;;;;;;;;;;;;;;;10222238;28;19922;-82
2023/12/12 08:01:15;;;;;;;;;;;;;;;;;;10260339;28;19930;-80
2023/12/12 08:06:21;;;;;;;;;;;;;;;;;;10230499;28;19957;-84
2023/12/12 08:11:24;;;;;;;;;;;;;;;;;;10240184;28;19922;-83
2023/12/12 08:16:28;;;;;;;;;;;;;;;;;;10247990;28;20415;-83
2023/12/12 08:21:34;;;;;;;;;;;;;;;;;;10231024;28;19934;-83
2023/12/12 08:26:35;;;;;;;;;;;;;;;;;;10227930;28;19923;-81
2023/12/12 08:31:37;;;;;;;;;;;;;;;;;;10206022;28;19926;-81
2023/12/12 08:36:37;;;;;;;;;;;;;;;;;;10204050;28;20559;-81
2023/12/12 08:41:37;;;;;;;;;;;;;;;;;;10258568;28;19955;-82
2023/12/12 08:46:38;;;;;;;;;;;;;;;;;;10257017;28;20110;-81
2023/12/12 08:51:39;;;;;;;;;;;;;;;;;;10236112;28;20438;-81
2023/12/12 08:56:45;;;;;;;;;;;;;;;;;;10228263;28;19926;-82
2023/12/12 09:01:45;;;;;;;;;;;;;;;;;;10226202;28;20140;-81
2023/12/12 09:06:47;;;;;;;;;;;;;;;;;;10241810;28;19922;-81
2023/12/12 09:11:49;;;;;;;;;;;;;;;;;;10273177;28;19973;-81
2023/12/12 09:16:52;;;;;;;;;;;;;;;;;;10261523;28;19922;-80
2023/12/12 09:21:54;;;;;;;;;;;;;;;;;;10293945;28;20083;-82
2023/12/12 09:26:55;;;;;;;;;;;;;;;;;;10279203;28;19942;-82
2023/12/12 09:31:55;;;;;;;;;;;;;;;;;;10295280;28;20041;-82
2023/12/12 09:36:55;;;;;;;;;;;;;;;;;;10285575;28;19926;-82
2023/12/12 09:41:56;;;;;;;;;;;;;;;;;;10306728;28;19935;-81
2023/12/12 09:46:57;;;;;;;;;;;;;;;;;;10320856;28;19936;-81
2023/12/12 09:51:58;;;;;;;;;;;;;;;;;;10321793;28;19926;-82
2023/12/12 09:56:58;;;;;;;;;;;;;;;;;;10345525;28;19926;-84
2023/12/12 10:01:58;;;;;;;;;;;;;;;;;;10324646;28;20386;-81
2023/12/12 10:06:59;;;;;;;;;;;;;;;;;;10313336;28;19922;-83
2023/12/12 10:12:00;;;;;;;;;;;;;;;;;;10319134;28;19940;-84
2023/12/12 10:17:00;;;;;;;;;;;;;;;;;;10368401;28;20009;-81
2023/12/12 10:22:00;;;;;;;;;;;;;;;;;;10332469;28;19932;-81
2023/12/12 10:27:01;;;;;;;;;;;;;;;;;;10274423;28;20287;-81
2023/12/12 10:32:05;;;;;;;;;;;;;;;;;;10292294;28;19972;-82
2023/12/12 10:37:06;;;;;;;;;;;;;;;;;;10308798;28;19922;-82
2023/12/12 10:42:06;;;;;;;;;;;;;;;;;;10308037;28;19926;-82
2023/12/12 10:47:06;;;;;;;;;;;;;;;;;;10302015;28;19929;-82
2023/12/12 10:52:08;;;;;;;;;;;;;;;;;;10297446;28;20658;-82
2023/12/12 10:57:10;;;;;;;;;;;;;;;;;;10294206;28;19926;-86
2023/12/12 11:02:11;;;;;;;;;;;;;;;;;;10289828;28;20267;-86
2023/12/12 11:07:11;;;;;;;;;;;;;;;;;;10299279;28;19928;-83
2023/12/12 11:12:13;;;;;;;;;;;;;;;;;;10287480;28;19930;-81
2023/12/12 11:17:14;;;;;;;;;;;;;;;;;;10267002;28;19962;-82
2023/12/12 11:22:14;;;;;;;;;;;;;;;;;;10290940;28;20056;-82
2023/12/12 11:27:15;;;;;;;;;;;;;;;;;;10295624;28;20111;-83
2023/12/12 11:32:16;;;;;;;;;;;;;;;;;;10275335;28;19921;-81
2023/12/12 11:37:17;;;;;;;;;;;;;;;;;;10297350;28;19928;-83
2023/12/12 11:42:17;;;;;;;;;;;;;;;;;;10316068;28;19941;-84
2023/12/12 11:47:18;;;;;;;;;;;;;;;;;;10327330;28;19928;-88
2023/12/12 11:52:19;;;;;;;;;;;;;;;;;;10317743;28;19918;-86
2023/12/12 11:57:23;;;;;;;;;;;;;;;;;;10353981;28;19929;-84
2023/12/12 12:02:23;;;;;;;;;;;;;;;;;;10346855;28;19924;-84
2023/12/12 12:07:24;;;;;;;;;;;;;;;;;;10345868;28;20279;-82
2023/12/12 12:12:25;;;;;;;;;;;;;;;;;;10312742;28;19957;-83
2023/12/12 12:17:26;;;;;;;;;;;;;;;;;;10296395;28;19966;-84
2023/12/12 12:22:26;;;;;;;;;;;;;;;;;;10267341;28;19960;-83
2023/12/12 12:27:26;;;;;;;;;;;;;;;;;;10300493;28;19925;-84
2023/12/12 12:32:26;;;;;;;;;;;;;;;;;;10292929;28;19980;-84
2023/12/12 12:37:29;;;;;;;;;;;;;;;;;;10284745;28;20191;-82
2023/12/12 12:42:33;;;;;;;;;;;;;;;;;;10295825;28;20685;-82
2023/12/12 12:47:33;;;;;;;;;;;;;;;;;;10295913;28;20536;-83
2023/12/12 12:52:34;;;;;;;;;;;;;;;;;;10258538;28;19971;-83
2023/12/12 12:57:34;;;;;;;;;;;;;;;;;;10275832;28;19973;-84
2023/12/12 13:02:35;;;;;;;;;;;;;;;;;;10276819;28;19991;-83
2023/12/12 13:07:36;;;;;;;;;;;;;;;;;;10290029;28;19925;-83
2023/12/12 13:12:40;;;;;;;;;;;;;;;;;;10288364;28;20004;-84
2023/12/12 13:17:40;;;;;;;;;;;;;;;;;;10253848;28;19922;-84
2023/12/12 13:22:40;;;;;;;;;;;;;;;;;;10275265;28;19930;-84
2023/12/12 13:27:41;;;;;;;;;;;;;;;;;;10256237;28;19926;-84
2023/12/12 13:32:43;;;;;;;;;;;;;;;;;;10324064;28;19952;-83
2023/12/12 13:37:47;;;;;;;;;;;;;;;;;;10354770;28;19921;-84
2023/12/12 13:42:50;;;;;;;;;;;;;;;;;;10358928;28;19925;-84
2023/12/12 13:47:50;;;;;;;;;;;;;;;;;;10353775;28;19948;-85
2023/12/12 13:52:52;;;;;;;;;;;;;;;;;;10301010;28;19997;-85
2023/12/12 13:57:54;;;;;;;;;;;;;;;;;;10349911;28;20001;-83
2023/12/12 14:02:55;;;;;;;;;;;;;;;;;;10335365;28;19954;-83
2023/12/12 14:07:55;;;;;;;;;;;;;;;;;;10318726;28;20017;-82
2023/12/12 14:13:00;;;;;;;;;;;;;;;;;;10293207;28;19922;-84
2023/12/12 14:18:02;;;;;;;;;;;;;;;;;;10285253;28;19943;-83
2023/12/12 14:23:03;;;;;;;;;;;;;;;;;;10307861;28;20374;-84
2023/12/12 14:28:05;;;;;;;;;;;;;;;;;;10304219;28;19922;-82
2023/12/12 14:33:07;;;;;;;;;;;;;;;;;;10299780;28;20024;-83
2023/12/12 14:38:07;;;;;;;;;;;;;;;;;;10297735;28;20073;-83
2023/12/12 14:43:08;;;;;;;;;;;;;;;;;;10289730;28;19968;-83
2023/12/12 14:48:08;;;;;;;;;;;;;;;;;;10241316;28;19998;-84
2023/12/12 14:53:09;;;;;;;;;;;;;;;;;;10237053;28;19923;-84
2023/12/12 14:58:11;;;;;;;;;;;;;;;;;;10233735;28;20395;-84
2023/12/12 15:03:11;;;;;;;;;;;;;;;;;;10246394;28;20697;-83
2023/12/12 15:08:11;;;;;;;;;;;;;;;;;;10271644;28;19985;-85
2023/12/12 15:13:12;;;;;;;;;;;;;;;;;;10270051;28;19922;-84
2023/12/12 15:18:15;;;;;;;;;;;;;;;;;;10258492;28;19926;-85
2023/12/12 15:23:17;;;;;;;;;;;;;;;;;;10249071;28;20013;-84
2023/12/12 15:28:17;;;;;;;;;;;;;;;;;;10280289;28;20444;-85
2023/12/12 15:33:17;;;;;;;;;;;;;;;;;;10263388;28;19929;-84
2023/12/12 15:38:18;;;;;;;;;;;;;;;;;;10236585;28;19938;-88
2023/12/12 15:43:24;;;;;;;;;;;;;;;;;;10306871;28;19941;-87
2023/12/12 15:48:25;;;;;;;;;;;;;;;;;;10326266;28;20784;-88
2023/12/12 15:53:25;;;;;;;;;;;;;;;;;;10331434;28;21002;-85
2023/12/12 15:58:26;;;;;;;;;;;;;;;;;;10286037;28;20915;-86
2023/12/12 16:03:27;;;;;;;;;;;;;;;;;;10270779;28;19926;-84
2023/12/12 16:08:28;;;;;;;;;;;;;;;;;;10283135;28;19939;-84
2023/12/12 16:13:28;;;;;;;;;;;;;;;;;;10284802;28;19926;-83
2023/12/12 16:18:29;;;;;;;;;;;;;;;;;;10310313;28;19934;-86
2023/12/12 16:23:31;;;;;;;;;;;;;;;;;;10303759;28;19961;-85
2023/12/12 16:28:34;;;;;;;;;;;;;;;;;;10291912;28;19950;-84
2023/12/12 16:33:43;;;;;;;;;;;;;;;;;;10322535;28;19929;-84
2023/12/12 16:38:45;;;;;;;;;;;;;;;;;;10291106;28;20342;-87
2023/12/12 16:44:21;;;;;;;;;;;;;;;;;;10296335;28;19926;-84
2023/12/12 16:49:22;;;;;;;;;;;;;;;;;;10344097;28;20174;-85
2023/12/12 16:54:31;;;;;;;;;;;;;;;;;;10337582;28;20007;-88
2023/12/12 16:59:34;;;;;;;;;;;;;;;;;;10354152;28;19917;-86
2023/12/12 17:04:38;;;;;;;;;;;;;;;;;;10351198;28;19909;-86
2023/12/12 17:09:40;;;;;;;;;;;;;;;;;;10330431;28;19906;-85
2023/12/12 17:14:42;;;;;;;;;;;;;;;;;;10297470;28;19993;-86
2023/12/12 17:19:43;;;;;;;;;;;;;;;;;;10312039;28;19936;-85
2023/12/12 17:24:44;;;;;;;;;;;;;;;;;;10307049;28;21042;-84
2023/12/12 17:29:45;;;;;;;;;;;;;;;;;;10290498;28;20409;-86
2023/12/12 17:34:45;;;;;;;;;;;;;;;;;;10297117;28;19919;-84
2023/12/12 17:39:45;;;;;;;;;;;;;;;;;;10340581;28;19948;-81
2023/12/12 17:44:47;;;;;;;;;;;;;;;;;;10336547;28;19957;-83
2023/12/12 17:49:47;;;;;;;;;;;;;;;;;;10281735;28;19942;-84
2023/12/12 17:54:49;;;;;;;;;;;;;;;;;;10311341;28;20440;-85
2023/12/12 17:59:49;;;;;;;;;;;;;;;;;;10266207;28;22265;-85
2023/12/12 18:04:50;;;;;;;;;;;;;;;;;;10296289;28;19933;-83
2023/12/12 18:09:53;;;;;;;;;;;;;;;;;;10283378;28;19965;-85
2023/12/12 18:14:53;;;;;;;;;;;;;;;;;;10255177;28;19926;-84
2023/12/12 18:19:56;;;;;;;;;;;;;;;;;;10304254;28;20033;-84
2023/12/12 18:24:57;;;;;;;;;;;;;;;;;;10296075;28;19922;-88
2023/12/12 18:30:00;;;;;;;;;;;;;;;;;;10293065;28;19922;-85
2023/12/12 18:35:01;;;;;;;;;;;;;;;;;;10267930;28;19964;-85
2023/12/12 18:40:06;;;;;;;;;;;;;;;;;;10286337;28;19925;-87
2023/12/12 18:45:11;;;;;;;;;;;;;;;;;;10318787;28;21014;-83
2023/12/12 18:50:14;;;;;;;;;;;;;;;;;;10275563;28;19928;-85
2023/12/12 18:55:20;;;;;;;;;;;;;;;;;;10314641;28;19956;-89
2023/12/12 19:00:22;;;;;;;;;;;;;;;;;;10300311;28;20130;-86
2023/12/12 19:05:23;;;;;;;;;;;;;;;;;;10281428;28;19918;-89
2023/12/12 19:10:26;;;;;;;;;;;;;;;;;;10317114;28;20075;-84
2023/12/12 19:15:28;;;;;;;;;;;;;;;;;;10302751;28;20374;-83
2023/12/12 19:20:28;;;;;;;;;;;;;;;;;;10254356;28;19926;-83
2023/12/12 19:25:33;;;;;;;;;;;;;;;;;;10321079;28;19957;-85
2023/12/12 19:30:34;;;;;;;;;;;;;;;;;;10289496;28;20040;-86
2023/12/12 19:35:35;;;;;;;;;;;;;;;;;;10290290;28;20414;-83
2023/12/12 19:40:37;;;;;;;;;;;;;;;;;;10277952;28;20037;-86
2023/12/12 19:45:37;;;;;;;;;;;;;;;;;;10239037;28;19922;-84
2023/12/12 19:50:37;;;;;;;;;;;;;;;;;;10285522;28;19918;-85
2023/12/12 19:55:38;;;;;;;;;;;;;;;;;;10258825;28;19949;-86
2023/12/12 20:00:38;;;;;;;;;;;;;;;;;;10259121;28;19937;-83
2023/12/12 20:05:43;;;;;;;;;;;;;;;;;;10250291;28;19936;-84
2023/12/12 20:10:44;;;;;;;;;;;;;;;;;;10264653;28;19929;-84
2023/12/12 20:15:45;;;;;;;;;;;;;;;;;;10240585;28;19922;-83
2023/12/12 20:20:47;;;;;;;;;;;;;;;;;;10261783;28;19958;-88
2023/12/12 20:25:48;;;;;;;;;;;;;;;;;;10261827;28;20014;-84
2023/12/12 20:30:49;;;;;;;;;;;;;;;;;;10245959;28;20639;-87
2023/12/12 20:35:51;;;;;;;;;;;;;;;;;;10249918;28;20396;-85
2023/12/12 20:40:57;;;;;;;;;;;;;;;;;;10266847;28;19977;-87
2023/12/12 20:45:58;;;;;;;;;;;;;;;;;;10239886;28;19923;-84
2023/12/12 20:50:59;;;;;;;;;;;;;;;;;;10261739;28;19936;-87
2023/12/12 20:55:59;;;;;;;;;;;;;;;;;;10283207;28;19933;-87
2023/12/12 21:01:01;;;;;;;;;;;;;;;;;;10259202;28;19981;-85
2023/12/12 21:06:01;;;;;;;;;;;;;;;;;;10274892;28;19945;-84
2023/12/12 21:11:02;;;;;;;;;;;;;;;;;;10245844;28;19925;-85
2023/12/12 21:16:02;;;;;;;;;;;;;;;;;;10217304;28;19911;-86
2023/12/12 21:21:05;;;;;;;;;;;;;;;;;;10597854;23;19933;-86
2023/12/12 21:31:29;;;;;;;;;;;;;;;;;;11442772;23;19920;-87
2023/12/12 21:41:50;;;;;;;;;;;;;;;;;;10378151;28;19968;-89
2023/12/12 21:46:52;;;;;;;;;;;;;;;;;;10366369;28;20228;-86
2023/12/12 21:51:54;;;;;;;;;;;;;;;;;;11080526;23;21513;-86
2023/12/12 21:56:56;;;;;;;;;;;;;;;;;;10335260;28;19941;-87
2023/12/12 22:02:07;;;;;;;;;;;;;;;;;;10645724;23;19930;-85
2023/12/12 22:07:07;;;;;;;;;;;;;;;;;;10563152;23;20136;-86
2023/12/12 22:12:08;;;;;;;;;;;;;;;;;;10580398;23;20011;-83
2023/12/12 22:17:09;;;;;;;;;;;;;;;;;;10609760;23;19929;-84
2023/12/12 22:22:13;;;;;;;;;;;;;;;;;;10335982;28;19929;-83
2023/12/12 22:27:14;;;;;;;;;;;;;;;;;;10311908;28;19997;-85
2023/12/12 22:32:14;;;;;;;;;;;;;;;;;;10324868;28;19932;-85
2023/12/12 22:37:14;;;;;;;;;;;;;;;;;;10306036;28;20297;-86
2023/12/12 22:42:16;;;;;;;;;;;;;;;;;;10303290;28;19997;-86
2023/12/12 22:47:16;;;;;;;;;;;;;;;;;;10315596;28;19929;-88
2023/12/12 22:52:17;;;;;;;;;;;;;;;;;;10319481;28;19929;-85
2023/12/12 22:57:18;;;;;;;;;;;;;;;;;;10331968;28;19932;-85
2023/12/12 23:02:20;;;;;;;;;;;;;;;;;;10310135;28;20024;-86
2023/12/12 23:07:20;;;;;;;;;;;;;;;;;;10317910;28;19922;-84
2023/12/12 23:12:22;;;;;;;;;;;;;;;;;;10336189;28;19930;-84
2023/12/12 23:17:22;;;;;;;;;;;;;;;;;;10299929;28;19965;-87
2023/12/12 23:22:27;;;;;;;;;;;;;;;;;;10327389;28;19975;-84
2023/12/12 23:27:27;;;;;;;;;;;;;;;;;;10317341;28;20021;-85
2023/12/12 23:32:27;;;;;;;;;;;;;;;;;;10290770;28;20052;-84
2023/12/12 23:37:30;;;;;;;;;;;;;;;;;;10325899;28;19932;-82
2023/12/12 23:42:30;;;;;;;;;;;;;;;;;;10343936;28;19929;-83
2023/12/12 23:47:30;;;;;;;;;;;;;;;;;;10324580;28;20007;-82
2023/12/12 23:52:32;;;;;;;;;;;;;;;;;;10336343;28;19929;-83
2023/12/12 23:57:34;;;;;;;;;;;;;;;;;;10338928;28;20015;-83
